Time;durP1;ratioP1;P1;durP2;ratioP2;P2;SDS_P1;SDS_P2;PMS_P1;PMS_P2;Temp;Humidity;BMP_temperature;BMP_pressure;BME280_temperature;BME280_humidity;BME280_pressure;Samples;Min_cycle;Max_cycle;Signal;HPM_P1;HPM_P2
2022/12/05 00:02:00;;;;;;;88.03;49.30;;;;;;;;;;5064177;28;20444;-67
2022/12/05 00:04:26;;;;;;;78.75;46.90;;;;;;;;;;5051984;28;20017;-68
2022/12/05 00:06:51;;;;;;;70.75;44.17;;;;;;;;;;5051884;28;20472;-67
2022/12/05 00:09:16;;;;;;;79.25;45.42;;;;;;;;;;5052391;28;20074;-67
2022/12/05 00:11:43;;;;;;;78.50;45.25;;;;;;;;;;5048115;28;20060;-67
2022/12/05 00:14:08;;;;;;;69.05;43.13;;;;;;;;;;5049572;28;20020;-68
2022/12/05 00:16:35;;;;;;;72.85;44.42;;;;;;;;;;5055747;28;20023;-67
2022/12/05 00:19:01;;;;;;;66.57;45.05;;;;;;;;;;5047430;28;20018;-68
2022/12/05 00:21:27;;;;;;;74.22;46.45;;;;;;;;;;5051351;28;20070;-68
2022/12/05 00:23:54;;;;;;;68.43;40.00;;;;;;;;;;5052263;28;20017;-68
2022/12/05 00:26:19;;;;;;;69.10;44.50;;;;;;;;;;5032780;28;20013;-67
2022/12/05 00:28:44;;;;;;;76.53;44.25;;;;;;;;;;5032567;28;20515;-67
2022/12/05 00:31:11;;;;;;;70.47;43.47;;;;;;;;;;5031744;28;20468;-67
2022/12/05 00:33:37;;;;;;;80.88;45.25;;;;;;;;;;5033829;28;20025;-67
2022/12/05 00:36:12;;;;;;;80.35;43.38;;;;;;;;;;5034282;28;20028;-67
2022/12/05 00:38:38;;;;;;;66.30;43.67;;;;;;;;;;5048151;28;20029;-68
2022/12/05 00:41:08;;;;;;;64.80;41.72;;;;;;;;;;5055174;28;20079;-68
2022/12/05 00:43:33;;;;;;;73.03;44.03;;;;;;;;;;5052025;28;20017;-67
2022/12/05 00:46:02;;;;;;;73.97;44.58;;;;;;;;;;5056121;28;20032;-68
2022/12/05 00:48:28;;;;;;;75.15;42.45;;;;;;;;;;5054887;28;20056;-67
2022/12/05 00:51:02;;;;;;;74.72;45.55;;;;;;;;;;5054342;28;20048;-67
2022/12/05 00:53:28;;;;;;;;;;;;;;;;;;5060633;28;20471;-68
2022/12/05 00:55:53;;;;;;;63.70;39.47;;;;;;;;;;5063509;28;19966;-68
2022/12/05 00:58:18;;;;;;;67.35;42.05;;;;;;;;;;5055383;28;20274;-68
2022/12/05 01:00:43;;;;;;;87.32;46.90;;;;;;;;;;5055304;28;20013;-67
2022/12/05 01:03:08;;;;;;;67.82;42.22;;;;;;;;;;5054247;28;20058;-68
2022/12/05 01:05:34;;;;;;;69.00;43.83;;;;;;;;;;5054783;28;20021;-68
2022/12/05 01:07:59;;;;;;;70.75;45.03;;;;;;;;;;5055113;28;20037;-67
2022/12/05 01:10:24;;;;;;;71.30;42.78;;;;;;;;;;5055248;28;20499;-68
2022/12/05 01:12:50;;;;;;;77.32;46.45;;;;;;;;;;5054013;28;20100;-67
2022/12/05 01:15:15;;;;;;;70.78;42.58;;;;;;;;;;5055385;28;20024;-67
2022/12/05 01:17:40;;;;;;;72.25;44.78;;;;;;;;;;5068757;28;20028;-68
2022/12/05 01:20:06;;;;;;;71.13;41.95;;;;;;;;;;5059575;28;20021;-67
2022/12/05 01:22:31;;;;;;;70.18;43.75;;;;;;;;;;5032215;28;20013;-68
2022/12/05 01:24:57;;;;;;;79.22;45.33;;;;;;;;;;5035511;28;20144;-67
2022/12/05 01:27:22;;;;;;;70.10;41.13;;;;;;;;;;5042957;28;20021;-67
2022/12/05 01:29:47;;;;;;;77.38;44.53;;;;;;;;;;5034816;28;20021;-67
2022/12/05 01:32:12;;;;;;;68.47;43.97;;;;;;;;;;5033555;28;20053;-67
2022/12/05 01:34:38;;;;;;;69.85;44.17;;;;;;;;;;5039785;28;20045;-67
2022/12/05 01:37:03;;;;;;;66.20;41.50;;;;;;;;;;5047188;28;20115;-67
2022/12/05 01:39:28;;;;;;;63.80;42.85;;;;;;;;;;5019164;28;21055;-67
2022/12/05 01:41:54;;;;;;;67.60;42.83;;;;;;;;;;5032585;28;20366;-68
2022/12/05 01:44:22;;;;;;;76.18;41.70;;;;;;;;;;5045741;28;20464;-67
2022/12/05 01:46:48;;;;;;;75.35;44.75;;;;;;;;;;5048044;28;20021;-67
2022/12/05 01:49:15;;;;;;;71.05;44.25;;;;;;;;;;5047055;28;20067;-67
2022/12/05 01:51:44;;;;;;;65.05;43.50;;;;;;;;;;5042232;28;20468;-67
2022/12/05 01:54:09;;;;;;;67.07;43.05;;;;;;;;;;5064123;28;20039;-67
2022/12/05 01:56:35;;;;;;;65.03;42.53;;;;;;;;;;5056195;28;20013;-67
2022/12/05 01:59:04;;;;;;;69.57;43.22;;;;;;;;;;5043674;28;20013;-67
2022/12/05 02:01:29;;;;;;;67.20;41.97;;;;;;;;;;5036865;28;20021;-67
2022/12/05 02:03:56;;;;;;;65.40;42.60;;;;;;;;;;5046104;28;20032;-67
2022/12/05 02:06:22;;;;;;;67.88;43.63;;;;;;;;;;5041125;28;20448;-67
2022/12/05 02:08:48;;;;;;;71.55;41.67;;;;;;;;;;5039888;28;20480;-68
2022/12/05 02:11:13;;;;;;;69.97;44.20;;;;;;;;;;5040065;28;20487;-68
2022/12/05 02:13:44;;;;;;;61.50;40.42;;;;;;;;;;5037646;28;20014;-68
2022/12/05 02:16:20;;;;;;;77.43;45.00;;;;;;;;;;5049731;28;20021;-68
2022/12/05 02:19:05;;;;;;;73.88;44.28;;;;;;;;;;5044830;28;20014;-67
2022/12/05 02:21:49;;;;;;;68.22;42.22;;;;;;;;;;5041692;28;20095;-67
2022/12/05 02:24:23;;;;;;;73.97;41.15;;;;;;;;;;5052575;28;20021;-67
2022/12/05 02:26:55;;;;;;;61.03;40.00;;;;;;;;;;5034900;28;20021;-67
2022/12/05 02:29:27;;;;;;;60.90;39.83;;;;;;;;;;5036132;28;20040;-67
2022/12/05 02:31:52;;;;;;;66.50;40.10;;;;;;;;;;5033950;28;20491;-68
2022/12/05 02:34:32;;;;;;;61.40;39.30;;;;;;;;;;5034632;28;20092;-68
2022/12/05 02:37:09;;;;;;;61.58;39.55;;;;;;;;;;5034519;28;20264;-68
2022/12/05 02:39:53;;;;;;;65.97;39.15;;;;;;;;;;5034591;28;20384;-67
2022/12/05 02:42:50;;;;;;;72.13;41.77;;;;;;;;;;5035189;28;20018;-67
2022/12/05 02:45:17;;;;;;;79.50;42.78;;;;;;;;;;5025375;28;20103;-68
2022/12/05 02:47:47;;;;;;;66.05;40.90;;;;;;;;;;5053532;28;20060;-68
2022/12/05 02:50:15;;;;;;;72.25;39.78;;;;;;;;;;5051348;28;20052;-67
2022/12/05 02:52:40;;;;;;;75.22;42.97;;;;;;;;;;5053516;28;20371;-67
2022/12/05 02:55:07;;;;;;;71.47;42.78;;;;;;;;;;5053223;28;20020;-67
2022/12/05 02:57:33;;;;;;;67.13;40.30;;;;;;;;;;5053028;28;20014;-67
2022/12/05 02:59:58;;;;;;;65.05;39.50;;;;;;;;;;5036986;28;20028;-67
2022/12/05 03:02:25;;;;;;;68.68;43.80;;;;;;;;;;5061214;28;20021;-67
2022/12/05 03:04:50;;;;;;;56.20;36.95;;;;;;;;;;5063850;28;20051;-67
2022/12/05 03:07:16;;;;;;;61.05;38.22;;;;;;;;;;5054010;28;20061;-67
2022/12/05 03:09:47;;;;;;;62.70;39.80;;;;;;;;;;5045797;28;20021;-67
2022/12/05 03:12:33;;;;;;;66.22;40.70;;;;;;;;;;5034564;28;20052;-67
2022/12/05 03:15:01;;;;;;;67.22;41.75;;;;;;;;;;5053186;28;20021;-67
2022/12/05 03:17:32;;;;;;;72.50;44.30;;;;;;;;;;5048656;28;20021;-67
2022/12/05 03:20:03;;;;;;;79.95;44.78;;;;;;;;;;5037371;28;20476;-67
2022/12/05 03:22:35;;;;;;;76.43;45.75;;;;;;;;;;5043088;28;20016;-67
2022/12/05 03:25:01;;;;;;;75.53;47.33;;;;;;;;;;5051775;28;20028;-67
2022/12/05 03:27:31;;;;;;;78.07;43.55;;;;;;;;;;5041591;28;20032;-68
2022/12/05 03:30:00;;;;;;;76.07;45.10;;;;;;;;;;5011943;28;20017;-67
2022/12/05 03:32:28;;;;;;;76.25;43.97;;;;;;;;;;5043493;28;20418;-67
2022/12/05 03:35:03;;;;;;;68.70;40.88;;;;;;;;;;5030793;28;20345;-67
2022/12/05 03:37:31;;;;;;;69.40;45.08;;;;;;;;;;5028316;28;20032;-67
2022/12/05 03:40:06;;;;;;;82.40;47.80;;;;;;;;;;5056775;28;20025;-67
2022/12/05 03:42:33;;;;;;;70.25;44.45;;;;;;;;;;5052054;28;20025;-67
2022/12/05 03:45:01;;;;;;;82.22;46.65;;;;;;;;;;5057581;28;20043;-67
2022/12/05 03:47:37;;;;;;;77.03;43.42;;;;;;;;;;5058447;28;20013;-67
2022/12/05 03:50:06;;;;;;;69.93;44.20;;;;;;;;;;5038055;28;20090;-67
2022/12/05 03:52:41;;;;;;;64.72;41.78;;;;;;;;;;5051122;28;20446;-67
2022/12/05 03:55:08;;;;;;;71.65;43.35;;;;;;;;;;5033479;28;20028;-67
2022/12/05 03:57:36;;;;;;;69.43;45.05;;;;;;;;;;5028823;28;20013;-67
2022/12/05 04:00:07;;;;;;;72.20;42.28;;;;;;;;;;5052780;28;20048;-67
2022/12/05 04:02:44;;;;;;;74.53;43.72;;;;;;;;;;5048390;28;20016;-67
2022/12/05 04:05:32;;;;;;;80.38;44.47;;;;;;;;;;5049786;28;20025;-67
2022/12/05 04:08:00;;;;;;;71.05;43.40;;;;;;;;;;5039515;28;20033;-67
2022/12/05 04:10:28;;;;;;;70.63;43.50;;;;;;;;;;5051171;28;20018;-67
2022/12/05 04:12:55;;;;;;;68.55;44.25;;;;;;;;;;5057476;28;20399;-67
2022/12/05 04:15:23;;;;;;;70.32;42.72;;;;;;;;;;5048653;28;20017;-67
2022/12/05 04:17:51;;;;;;;61.95;43.05;;;;;;;;;;5052007;28;20063;-67
2022/12/05 04:23:03;;;;;;;69.22;43.38;;;;;;;;;;5044250;28;20108;-67
2022/12/05 04:25:32;;;;;;;72.07;45.20;;;;;;;;;;5044525;28;20445;-67
2022/12/05 04:28:16;;;;;;;81.57;46.53;;;;;;;;;;5043245;28;20025;-67
2022/12/05 04:30:52;;;;;;;75.75;45.50;;;;;;;;;;5044478;28;20013;-67
2022/12/05 04:33:32;;;;;;;83.03;49.15;;;;;;;;;;5033799;28;20035;-67
2022/12/05 04:35:57;;;;;;;73.60;45.30;;;;;;;;;;5039438;28;20029;-67
2022/12/05 04:38:31;;;;;;;74.30;47.67;;;;;;;;;;5037813;28;20036;-67
2022/12/05 04:40:58;;;;;;;75.15;44.47;;;;;;;;;;5035888;28;20276;-66
2022/12/05 04:43:25;;;;;;;75.97;45.25;;;;;;;;;;5034721;28;20108;-67
2022/12/05 04:45:51;;;;;;;77.13;45.97;;;;;;;;;;5036785;28;20396;-67
2022/12/05 04:48:17;;;;;;;64.68;42.00;;;;;;;;;;5035516;28;20021;-66
2022/12/05 04:50:44;;;;;;;66.22;41.33;;;;;;;;;;5038092;28;21247;-66
2022/12/05 04:53:10;;;;;;;74.63;47.20;;;;;;;;;;5044971;28;20017;-66
2022/12/05 04:55:41;;;;;;;71.13;44.17;;;;;;;;;;5033755;28;20024;-66
2022/12/05 04:58:07;;;;;;;68.35;45.83;;;;;;;;;;5043741;28;20463;-66
2022/12/05 05:00:36;;;;;;;65.75;43.00;;;;;;;;;;5037136;28;20024;-66
2022/12/05 05:03:15;;;;;;;73.75;45.20;;;;;;;;;;5050825;28;20066;-67
2022/12/05 05:05:43;;;;;;;86.30;47.03;;;;;;;;;;5049160;28;20040;-66
2022/12/05 05:08:15;;;;;;;74.15;45.55;;;;;;;;;;5050853;28;20025;-66
2022/12/05 05:10:43;;;;;;;75.93;47.28;;;;;;;;;;5036285;28;20021;-66
2022/12/05 05:13:09;;;;;;;86.28;45.58;;;;;;;;;;5049839;28;20021;-66
2022/12/05 05:15:34;;;;;;;78.55;46.55;;;;;;;;;;5050296;28;20028;-66
2022/12/05 05:17:59;;;;;;;78.28;46.45;;;;;;;;;;5046648;28;20028;-66
2022/12/05 05:20:26;;;;;;;77.72;46.38;;;;;;;;;;5035611;28;20049;-65
2022/12/05 05:22:52;;;;;;;65.85;42.28;;;;;;;;;;5048380;28;20023;-66
2022/12/05 05:25:17;;;;;;;79.88;46.05;;;;;;;;;;5050854;28;20028;-66
2022/12/05 05:27:46;;;;;;;81.78;48.03;;;;;;;;;;5048121;28;20020;-66
2022/12/05 05:30:11;;;;;;;74.75;47.45;;;;;;;;;;5061334;28;20131;-65
2022/12/05 05:32:36;;;;;;;77.63;45.80;;;;;;;;;;5050726;28;20103;-67
2022/12/05 05:35:01;;;;;;;78.53;47.20;;;;;;;;;;5064062;28;20016;-66
2022/12/05 05:37:27;;;;;;;75.95;47.17;;;;;;;;;;5049859;28;20021;-65
2022/12/05 05:39:52;;;;;;;69.90;47.00;;;;;;;;;;5060135;28;20025;-64
2022/12/05 05:42:17;;;;;;;76.22;46.88;;;;;;;;;;5044044;28;20064;-65
2022/12/05 05:44:42;;;;;;;77.00;46.47;;;;;;;;;;5045422;28;20028;-65
2022/12/05 05:47:08;;;;;;;87.85;47.00;;;;;;;;;;5041579;28;20014;-65
2022/12/05 05:49:33;;;;;;;73.93;46.05;;;;;;;;;;5047019;28;20553;-64
2022/12/05 05:51:58;;;;;;;67.43;43.35;;;;;;;;;;5040834;28;20379;-65
2022/12/05 05:54:23;;;;;;;72.45;44.65;;;;;;;;;;5051488;28;20022;-64
2022/12/05 05:56:48;;;;;;;70.38;44.75;;;;;;;;;;5045034;28;20029;-65
2022/12/05 05:59:14;;;;;;;78.88;44.80;;;;;;;;;;5046935;28;20043;-65
2022/12/05 06:01:39;;;;;;;74.15;46.15;;;;;;;;;;5033323;28;20060;-65
2022/12/05 06:04:05;;;;;;;71.82;43.80;;;;;;;;;;5040335;28;20581;-65
2022/12/05 06:06:30;;;;;;;59.05;40.28;;;;;;;;;;5053157;28;20055;-65
2022/12/05 06:08:55;;;;;;;67.13;43.35;;;;;;;;;;5035579;28;20045;-65
2022/12/05 06:11:22;;;;;;;71.10;45.00;;;;;;;;;;5034816;28;20047;-65
2022/12/05 06:13:47;;;;;;;63.97;42.08;;;;;;;;;;5040831;28;20021;-65
2022/12/05 06:16:14;;;;;;;68.75;42.33;;;;;;;;;;5046855;28;20031;-65
2022/12/05 06:18:40;;;;;;;75.43;44.28;;;;;;;;;;5053568;28;20100;-65
2022/12/05 06:21:07;;;;;;;71.05;41.60;;;;;;;;;;5047129;28;20270;-65
2022/12/05 06:23:33;;;;;;;63.35;40.35;;;;;;;;;;5052045;28;20013;-65
2022/12/05 06:25:58;;;;;;;63.50;43.03;;;;;;;;;;5044815;28;20525;-64
2022/12/05 06:28:24;;;;;;;72.78;44.80;;;;;;;;;;5055868;28;20020;-65
2022/12/05 06:30:49;;;;;;;67.45;43.00;;;;;;;;;;5040799;28;20036;-65
2022/12/05 06:33:15;;;;;;;75.30;45.05;;;;;;;;;;5049586;28;20235;-64
2022/12/05 06:35:40;;;;;;;62.47;43.20;;;;;;;;;;5048775;28;20033;-64
2022/12/05 06:38:06;;;;;;;62.53;41.35;;;;;;;;;;5049822;28;20064;-64
2022/12/05 06:40:31;;;;;;;75.07;43.40;;;;;;;;;;5047291;28;20148;-64
2022/12/05 06:42:57;;;;;;;67.90;40.65;;;;;;;;;;5040271;28;20043;-64
2022/12/05 06:45:22;;;;;;;70.22;43.38;;;;;;;;;;5052067;28;20019;-64
2022/12/05 06:47:47;;;;;;;66.78;42.25;;;;;;;;;;5035935;28;20353;-63
2022/12/05 06:50:12;;;;;;;66.13;43.15;;;;;;;;;;5038453;28;20032;-63
2022/12/05 06:52:38;;;;;;;78.63;45.22;;;;;;;;;;5035262;28;20032;-63
2022/12/05 06:55:03;;;;;;;61.00;39.90;;;;;;;;;;5038979;28;20024;-63
2022/12/05 06:57:29;;;;;;;71.05;43.40;;;;;;;;;;5041131;28;20128;-63
2022/12/05 07:01:37;;;;;;;70.57;45.80;;;;;;;;;;5036671;28;20021;-63
2022/12/05 07:02:48;;;;;;;65.10;42.28;;;;;;;;;;5041006;28;20112;-63
2022/12/05 07:05:14;;;;;;;72.47;43.50;;;;;;;;;;5049632;28;20444;-63
2022/12/05 07:07:39;;;;;;;59.47;42.30;;;;;;;;;;5034123;28;20104;-63
2022/12/05 07:10:04;;;;;;;63.55;44.17;;;;;;;;;;5036443;28;20037;-63
2022/12/05 07:12:31;;;;;;;70.07;41.83;;;;;;;;;;5037292;28;20060;-63
2022/12/05 07:14:56;;;;;;;61.13;41.55;;;;;;;;;;5043168;28;20060;-63
2022/12/05 07:17:21;;;;;;;74.82;44.85;;;;;;;;;;5043291;28;20041;-64
2022/12/05 07:19:48;;;;;;;69.22;43.47;;;;;;;;;;5049756;28;20028;-64
2022/12/05 07:22:13;;;;;;;64.97;45.20;;;;;;;;;;5052517;28;20096;-64
2022/12/05 07:24:38;;;;;;;78.13;44.83;;;;;;;;;;5050515;28;20143;-64
2022/12/05 07:27:04;;;;;;;73.38;43.83;;;;;;;;;;5052308;28;20041;-64
2022/12/05 07:29:30;;;;;;;72.80;44.85;;;;;;;;;;5038022;28;20032;-65
2022/12/05 07:31:55;;;;;;;68.88;44.58;;;;;;;;;;5040164;28;20045;-64
2022/12/05 07:34:20;;;;;;;70.93;44.97;;;;;;;;;;5035607;28;20018;-64
2022/12/05 07:36:46;;;;;;;68.15;45.38;;;;;;;;;;5033496;28;20028;-63
2022/12/05 07:39:11;;;;;;;76.00;47.50;;;;;;;;;;5047646;28;20071;-64
2022/12/05 07:41:36;;;;;;;71.40;45.55;;;;;;;;;;5049017;28;20467;-64
2022/12/05 07:44:01;;;;;;;78.13;46.35;;;;;;;;;;5050764;28;20043;-64
2022/12/05 07:46:27;;;;;;;70.85;43.53;;;;;;;;;;5051131;28;20044;-63
2022/12/05 07:48:53;;;;;;;74.70;43.08;;;;;;;;;;5051310;28;20098;-64
2022/12/05 07:51:18;;;;;;;72.40;43.00;;;;;;;;;;5042494;28;20100;-64
2022/12/05 07:53:44;;;;;;;72.45;43.47;;;;;;;;;;5038170;28;20017;-64
2022/12/05 07:56:13;;;;;;;69.38;41.65;;;;;;;;;;5032925;28;20108;-64
2022/12/05 07:58:38;;;;;;;61.92;41.45;;;;;;;;;;5047761;28;20402;-64
2022/12/05 08:01:10;;;;;;;67.32;41.35;;;;;;;;;;5052342;28;20103;-64
2022/12/05 08:03:38;;;;;;;71.22;46.33;;;;;;;;;;5045559;28;20056;-64
2022/12/05 08:06:04;;;;;;;81.65;46.53;;;;;;;;;;5052527;28;20017;-64
2022/12/05 08:08:30;;;;;;;71.60;47.90;;;;;;;;;;5049775;28;20049;-64
2022/12/05 08:10:55;;;;;;;71.60;44.40;;;;;;;;;;5051275;28;20079;-64
2022/12/05 08:13:20;;;;;;;70.05;45.00;;;;;;;;;;5063738;28;20017;-64
2022/12/05 08:15:45;;;;;;;74.25;45.50;;;;;;;;;;5051463;28;20432;-64
2022/12/05 08:18:11;;;;;;;80.95;47.47;;;;;;;;;;5040035;28;20036;-64
2022/12/05 08:20:36;;;;;;;76.93;48.22;;;;;;;;;;5043920;28;20074;-65
2022/12/05 08:23:01;;;;;;;84.32;48.53;;;;;;;;;;5041254;28;20139;-65
2022/12/05 08:25:26;;;;;;;83.25;48.53;;;;;;;;;;5051937;28;20112;-65
2022/12/05 08:27:52;;;;;;;80.35;46.92;;;;;;;;;;5029729;28;20499;-65
2022/12/05 08:30:17;;;;;;;76.47;48.08;;;;;;;;;;5032190;28;20034;-65
2022/12/05 08:32:42;;;;;;;67.90;45.20;;;;;;;;;;5034104;28;20025;-66
2022/12/05 08:35:08;;;;;;;78.63;51.03;;;;;;;;;;5027221;28;20067;-65
2022/12/05 08:37:33;;;;;;;74.57;49.65;;;;;;;;;;5028846;28;20009;-65
2022/12/05 08:39:58;;;;;;;81.47;49.30;;;;;;;;;;5030378;28;20432;-65
2022/12/05 08:42:24;;;;;;;71.65;47.55;;;;;;;;;;5054556;28;20012;-65
2022/12/05 08:44:49;;;;;;;77.40;48.20;;;;;;;;;;5050135;28;20021;-65
2022/12/05 08:47:15;;;;;;;75.93;44.92;;;;;;;;;;5058268;28;20017;-65
2022/12/05 08:49:40;;;;;;;69.97;48.13;;;;;;;;;;5050018;28;20040;-66
2022/12/05 08:52:05;;;;;;;67.80;43.65;;;;;;;;;;5044439;28;20471;-65
2022/12/05 08:54:31;;;;;;;77.43;49.67;;;;;;;;;;5053495;28;20383;-65
2022/12/05 08:56:56;;;;;;;78.13;49.42;;;;;;;;;;5055319;28;20387;-65
2022/12/05 08:59:21;;;;;;;75.80;49.17;;;;;;;;;;5048081;28;20061;-65
2022/12/05 09:01:48;;;;;;;79.13;52.75;;;;;;;;;;5063705;28;20013;-65
2022/12/05 09:04:13;;;;;;;82.38;52.20;;;;;;;;;;5047891;28;20025;-65
2022/12/05 09:06:39;;;;;;;83.40;47.95;;;;;;;;;;5049439;28;20387;-65
2022/12/05 09:09:05;;;;;;;69.50;46.60;;;;;;;;;;5053298;28;20029;-65
2022/12/05 09:11:31;;;;;;;73.78;46.80;;;;;;;;;;5051742;28;20021;-65
2022/12/05 09:13:57;;;;;;;75.30;48.92;;;;;;;;;;5043396;28;20025;-65
2022/12/05 09:16:25;;;;;;;74.32;47.95;;;;;;;;;;5051030;28;20055;-65
2022/12/05 09:18:50;;;;;;;72.95;45.00;;;;;;;;;;5055631;28;20027;-65
2022/12/05 09:21:17;;;;;;;67.38;46.63;;;;;;;;;;5048288;28;20025;-65
2022/12/05 09:23:43;;;;;;;73.55;48.63;;;;;;;;;;5042295;28;20099;-65
2022/12/05 09:26:12;;;;;;;79.35;48.40;;;;;;;;;;5053816;28;20516;-65
2022/12/05 09:28:38;;;;;;;74.80;46.13;;;;;;;;;;5053742;28;20054;-65
2022/12/05 09:31:05;;;;;;;81.60;50.08;;;;;;;;;;5054574;28;20474;-70
2022/12/05 09:33:31;;;;;;;70.25;48.00;;;;;;;;;;5055099;28;20032;-65
2022/12/05 09:35:56;;;;;;;81.18;49.28;;;;;;;;;;5042300;28;20025;-65
2022/12/05 09:38:22;;;;;;;76.55;48.33;;;;;;;;;;5048764;28;20074;-65
2022/12/05 09:40:59;;;;;;;74.57;48.88;;;;;;;;;;5053282;28;20013;-65
2022/12/05 09:43:30;;;;;;;70.75;46.33;;;;;;;;;;5045417;28;20459;-65
2022/12/05 09:46:02;;;;;;;73.85;47.63;;;;;;;;;;5047948;28;20092;-65
2022/12/05 09:48:27;;;;;;;75.32;47.08;;;;;;;;;;5044982;28;20650;-65
2022/12/05 09:50:55;;;;;;;73.85;47.03;;;;;;;;;;5046461;28;20104;-65
2022/12/05 09:53:26;;;;;;;72.90;45.90;;;;;;;;;;5051057;28;20024;-65
2022/12/05 09:55:53;;;;;;;67.53;45.53;;;;;;;;;;5047983;28;20021;-65
2022/12/05 09:58:27;;;;;;;66.72;43.47;;;;;;;;;;5047391;28;20017;-64
2022/12/05 10:00:57;;;;;;;71.13;46.10;;;;;;;;;;5054322;28;20531;-64
2022/12/05 10:03:37;;;;;;;69.88;44.03;;;;;;;;;;5054296;28;20031;-64
2022/12/05 10:06:08;;;;;;;70.43;44.80;;;;;;;;;;5053277;28;20020;-64
2022/12/05 10:08:33;;;;;;;68.88;44.72;;;;;;;;;;5052944;28;20033;-64
2022/12/05 10:11:11;;;;;;;74.37;47.43;;;;;;;;;;5054608;28;20017;-63
2022/12/05 10:13:59;;;;;;;72.50;46.85;;;;;;;;;;5049972;28;20694;-63
2022/12/05 10:16:36;;;;;;;66.40;47.28;;;;;;;;;;5038301;28;20468;-63
2022/12/05 10:19:03;;;;;;;64.90;45.63;;;;;;;;;;5041732;28;20104;-63
2022/12/05 10:21:35;;;;;;;61.22;41.45;;;;;;;;;;5043708;28;20460;-63
2022/12/05 10:24:04;;;;;;;77.75;47.33;;;;;;;;;;5035057;28;20083;-63
2022/12/05 10:26:34;;;;;;;68.07;46.53;;;;;;;;;;5034794;28;20010;-63
2022/12/05 10:29:02;;;;;;;69.68;47.00;;;;;;;;;;5032136;28;20117;-63
2022/12/05 10:31:32;;;;;;;74.70;48.53;;;;;;;;;;5043233;28;20018;-63
2022/12/05 10:34:16;;;;;;;79.45;49.65;;;;;;;;;;5048626;28;20071;-63
2022/12/05 10:36:49;;;;;;;73.55;48.83;;;;;;;;;;5054175;28;20013;-63
2022/12/05 10:39:15;;;;;;;62.33;45.13;;;;;;;;;;5052146;28;20428;-63
2022/12/05 10:41:40;;;;;;;63.53;46.50;;;;;;;;;;5053910;28;20100;-64
2022/12/05 10:44:05;;;;;;;84.85;51.55;;;;;;;;;;5033709;28;20112;-64
2022/12/05 10:46:31;;;;;;;67.05;47.92;;;;;;;;;;5044277;28;20024;-64
2022/12/05 10:48:56;;;;;;;84.88;49.30;;;;;;;;;;5048287;28;20067;-64
2022/12/05 10:51:24;;;;;;;69.72;44.72;;;;;;;;;;5033889;28;20021;-65
2022/12/05 10:53:50;;;;;;;64.13;43.88;;;;;;;;;;5034112;28;20075;-65
2022/12/05 10:56:33;;;;;;;71.97;48.75;;;;;;;;;;5045778;28;20416;-65
2022/12/05 10:58:59;;;;;;;57.67;42.03;;;;;;;;;;5050212;28;20021;-65
2022/12/05 11:01:24;;;;;;;61.17;42.65;;;;;;;;;;5039411;28;20025;-66
2022/12/05 11:03:55;;;;;;;57.42;42.78;;;;;;;;;;5040923;28;20048;-64
2022/12/05 11:06:25;;;;;;;64.15;41.95;;;;;;;;;;5052833;28;20388;-64
2022/12/05 11:08:52;;;;;;;71.63;46.17;;;;;;;;;;5053215;28;20483;-64
2022/12/05 11:11:20;;;;;;;59.33;42.83;;;;;;;;;;5052704;28;20063;-76
2022/12/05 11:13:52;;;;;;;55.22;40.13;;;;;;;;;;5052489;28;20067;-65
2022/12/05 11:16:22;;;;;;;64.88;43.05;;;;;;;;;;5062759;28;20056;-65
2022/12/05 11:18:48;;;;;;;65.35;40.47;;;;;;;;;;5042609;28;20032;-65
2022/12/05 11:21:14;;;;;;;53.45;38.63;;;;;;;;;;5045999;28;20021;-65
2022/12/05 11:23:40;;;;;;;56.80;37.75;;;;;;;;;;5052668;28;20020;-65
2022/12/05 11:26:15;;;;;;;51.33;36.65;;;;;;;;;;5051972;28;20017;-65
2022/12/05 11:28:40;;;;;;;57.50;38.95;;;;;;;;;;5052713;28;20133;-65
2022/12/05 11:31:18;;;;;;;61.00;42.10;;;;;;;;;;5051166;28;20475;-65
2022/12/05 11:33:57;;;;;;;55.38;38.95;;;;;;;;;;5052179;28;20032;-65
2022/12/05 11:36:27;;;;;;;54.38;40.13;;;;;;;;;;5040733;28;20032;-65
2022/12/05 11:38:52;;;;;;;60.28;41.97;;;;;;;;;;5049530;28;20115;-65
2022/12/05 11:41:29;;;;;;;55.30;39.20;;;;;;;;;;5051288;28;20107;-65
2022/12/05 11:44:00;;;;;;;55.67;36.05;;;;;;;;;;5023661;28;20017;-65
2022/12/05 11:46:32;;;;;;;58.90;40.72;;;;;;;;;;5008898;28;20128;-65
2022/12/05 11:49:10;;;;;;;51.95;35.00;;;;;;;;;;5009516;28;20028;-65
2022/12/05 11:51:41;;;;;;;56.58;36.45;;;;;;;;;;5010359;28;20013;-66
2022/12/05 11:54:12;;;;;;;53.92;36.25;;;;;;;;;;5007813;28;20025;-66
2022/12/05 11:56:42;;;;;;;48.45;35.53;;;;;;;;;;5004127;28;20929;-66
2022/12/05 11:59:11;;;;;;;50.00;37.40;;;;;;;;;;5006434;28;20031;-66
2022/12/05 12:01:54;;;;;;;46.50;33.55;;;;;;;;;;5030061;28;20554;-66
2022/12/05 12:04:35;;;;;;;48.97;35.63;;;;;;;;;;5037410;28;20039;-65
2022/12/05 12:07:18;;;;;;;47.70;34.13;;;;;;;;;;5042928;28;20017;-65
2022/12/05 12:09:44;;;;;;;49.92;35.85;;;;;;;;;;5033077;28;20017;-66
2022/12/05 12:12:28;;;;;;;44.35;34.20;;;;;;;;;;5045190;28;20024;-65
2022/12/05 12:15:11;;;;;;;47.75;34.33;;;;;;;;;;5040328;28;20021;-65
2022/12/05 12:17:36;;;;;;;45.78;32.88;;;;;;;;;;5046264;28;20503;-65
2022/12/05 12:20:20;;;;;;;58.13;37.80;;;;;;;;;;5052099;28;20108;-65
2022/12/05 12:23:06;;;;;;;52.37;37.70;;;;;;;;;;5039142;28;20275;-65
2022/12/05 12:25:58;;;;;;;51.42;37.55;;;;;;;;;;5052299;28;20033;-66
2022/12/05 12:28:26;;;;;;;44.78;34.88;;;;;;;;;;5048136;28;20114;-65
2022/12/05 12:31:09;;;;;;;48.58;35.75;;;;;;;;;;5048513;28;20053;-66
2022/12/05 12:33:58;;;;;;;43.28;32.65;;;;;;;;;;5055499;28;20491;-65
2022/12/05 12:36:23;;;;;;;46.33;33.50;;;;;;;;;;5033764;28;20031;-65
2022/12/05 12:38:49;;;;;;;44.25;34.50;;;;;;;;;;5053163;28;20120;-65
2022/12/05 12:41:29;;;;;;;46.05;33.72;;;;;;;;;;5054115;28;20021;-65
2022/12/05 12:44:00;;;;;;;52.13;35.70;;;;;;;;;;5065793;28;20051;-65
2022/12/05 12:46:31;;;;;;;44.53;33.30;;;;;;;;;;5055800;28;20475;-65
2022/12/05 12:49:05;;;;;;;41.97;30.83;;;;;;;;;;5055590;28;20104;-65
2022/12/05 12:51:32;;;;;;;40.05;29.58;;;;;;;;;;5035560;28;20101;-65
2022/12/05 12:54:12;;;;;;;38.50;30.00;;;;;;;;;;5033383;28;20090;-65
2022/12/05 12:56:53;;;;;;;39.70;30.23;;;;;;;;;;5041030;28;20029;-65
2022/12/05 12:59:27;;;;;;;37.55;28.27;;;;;;;;;;5040504;28;20025;-65
2022/12/05 13:02:01;;;;;;;41.75;29.92;;;;;;;;;;5051094;28;20417;-65
2022/12/05 13:04:39;;;;;;;37.80;27.67;;;;;;;;;;5043065;28;20755;-65
2022/12/05 13:07:08;;;;;;;39.13;28.42;;;;;;;;;;5029674;28;20063;-65
2022/12/05 13:09:37;;;;;;;39.92;29.95;;;;;;;;;;5042642;28;20025;-65
2022/12/05 13:12:08;;;;;;;42.10;30.15;;;;;;;;;;5047933;28;20028;-65
2022/12/05 13:14:36;;;;;;;40.63;30.10;;;;;;;;;;5043548;28;20017;-65
2022/12/05 13:17:03;;;;;;;38.92;28.25;;;;;;;;;;5014139;28;20099;-65
2022/12/05 13:19:39;;;;;;;37.53;26.80;;;;;;;;;;5016051;28;20013;-64
2022/12/05 13:22:05;;;;;;;38.70;28.25;;;;;;;;;;5042434;28;20341;-65
2022/12/05 13:24:31;;;;;;;31.83;25.13;;;;;;;;;;5044348;28;20092;-64
2022/12/05 13:27:01;;;;;;;32.20;24.33;;;;;;;;;;5041160;28;20040;-64
2022/12/05 13:29:29;;;;;;;35.97;26.50;;;;;;;;;;5032055;28;20099;-65
2022/12/05 13:31:54;;;;;;;31.83;23.75;;;;;;;;;;5036679;28;20380;-67
2022/12/05 13:34:44;;;;;;;32.33;25.42;;;;;;;;;;5035516;28;20029;-65
2022/12/05 13:42:39;;;;;;;;;;;;;;;;;;5048498;28;20035;-63
2022/12/05 13:45:07;;;;;;;34.10;25.13;;;;;;;;;;5049830;28;19917;-63
2022/12/05 13:47:36;;;;;;;37.90;26.05;;;;;;;;;;5045615;28;20116;-64
2022/12/05 13:50:11;;;;;;;35.25;26.02;;;;;;;;;;5039258;28;20029;-63
2022/12/05 13:52:42;;;;;;;35.13;27.65;;;;;;;;;;5039841;28;20025;-65
2022/12/05 13:55:16;;;;;;;41.35;27.70;;;;;;;;;;5047119;28;20062;-64
2022/12/05 13:57:43;;;;;;;35.03;26.80;;;;;;;;;;5049106;28;20520;-63
2022/12/05 14:00:08;;;;;;;35.40;26.52;;;;;;;;;;5040247;28;20076;-64
2022/12/05 14:02:40;;;;;;;35.97;27.50;;;;;;;;;;5051193;28;20024;-64
2022/12/05 14:05:16;;;;;;;37.20;29.02;;;;;;;;;;5046226;28;20020;-63
2022/12/05 14:07:42;;;;;;;38.53;29.15;;;;;;;;;;5041698;28;20060;-61
2022/12/05 14:10:08;;;;;;;37.40;29.30;;;;;;;;;;5037902;28;20026;-64
2022/12/05 14:12:54;;;;;;;35.85;27.45;;;;;;;;;;5040189;28;20113;-64
2022/12/05 14:15:27;;;;;;;34.08;27.67;;;;;;;;;;5036813;28;20037;-64
2022/12/05 14:17:58;;;;;;;37.25;27.45;;;;;;;;;;5029568;28;20025;-65
2022/12/05 14:20:29;;;;;;;26.20;22.98;;;;;;;;;;5036137;28;20102;-64
2022/12/05 14:23:03;;;;;;;33.72;25.60;;;;;;;;;;5034650;28;20017;-64
2022/12/05 14:25:54;;;;;;;35.92;26.77;;;;;;;;;;5044459;28;20029;-64
2022/12/05 14:28:46;;;;;;;33.45;26.38;;;;;;;;;;5047314;28;20056;-64
2022/12/05 14:31:14;;;;;;;33.28;24.73;;;;;;;;;;5050775;28;20026;-64
2022/12/05 14:33:40;;;;;;;34.88;25.10;;;;;;;;;;5042395;28;20372;-65
2022/12/05 14:36:07;;;;;;;33.63;26.10;;;;;;;;;;5036674;28;20074;-65
2022/12/05 14:38:35;;;;;;;35.70;26.83;;;;;;;;;;5046844;28;20108;-66